Data for 10/16/2007

Time Sea-Level Adjusted Pressure Absolute Pressure Temperature Relative Humidity Dew Point   
(mb) (inHg) (mb) (inHg) (C) (F) (%) (C) (F)
00:05 1010 29.83 839 24.78 9.3 48.7 56 0.9 33.6
00:10 1009 29.8 839 24.78 9.3 48.7 56 1 33.8
00:15 1009 29.8 839 24.78 9.1 48.4 56 1 33.7
00:20 1009 29.8 839 24.78 9 48.2 57 1 33.8
00:25 1009 29.8 839 24.78 8.9 48 57 1 33.7
00:30 1009 29.8 839 24.78 8.8 47.9 57 0.9 33.7
00:35 1009 29.8 839 24.78 8.7 47.7 58 1 33.7
00:40 1009 29.8 838 24.75 8.6 47.4 59 1 33.8
00:45 1009 29.8 838 24.75 8.4 47.1 59 0.9 33.7
00:50 1009 29.8 838 24.75 8.3 47 59 0.9 33.6
00:55 1009 29.8 838 24.75 8.2 46.8 60 1.1 33.9
01:00 1009 29.8 838 24.75 8 46.5 60 0.9 33.5
01:05 1009 29.8 838 24.75 8 46.4 60 0.8 33.4
01:10 1009 29.8 838 24.75 8 46.4 61 0.9 33.6
01:15 1009 29.8 838 24.75 8 46.3 61 0.8 33.5
01:20 1009 29.8 839 24.78 8 46.4 61 0.8 33.5
01:25 1009 29.8 839 24.78 8 46.4 60 0.8 33.5
01:30 1009 29.8 839 24.78 8 46.4 60 0.8 33.4
01:35 1009 29.8 839 24.78 8 46.3 60 0.8 33.4
01:40 1009 29.8 839 24.78 7.9 46.3 60 0.8 33.4
01:45 1009 29.8 839 24.78 7.8 46 62 0.9 33.6
01:50 1009 29.8 839 24.78 7.5 45.5 62 0.8 33.4
01:55 1009 29.8 839 24.78 7.4 45.3 62 0.7 33.3
02:00 1009 29.8 839 24.78 7.4 45.2 63 0.7 33.3
02:05 1009 29.8 839 24.78 7.2 44.9 63 0.7 33.2
02:10 1009 29.8 839 24.78 7.1 44.7 63 0.6 33.1
02:15 1009 29.8 839 24.78 6.9 44.5 64 0.6 33.1
02:20 1009 29.8 838 24.75 6.9 44.4 64 0.5 32.9
02:25 1009 29.8 838 24.75 6.9 44.4 64 0.6 33.1
02:30 1009 29.8 838 24.75 6.8 44.2 65 0.7 33.2
02:35 1009 29.8 838 24.75 6.6 43.8 66 0.7 33.3
02:40 1009 29.8 838 24.75 6.4 43.6 67 0.7 33.3
02:45 1009 29.8 838 24.75 6.3 43.4 67 0.7 33.3
02:50 1009 29.8 838 24.75 6.3 43.3 67 0.6 33.1
02:55 1009 29.8 838 24.75 6.3 43.3 67 0.6 33
03:00 1009 29.8 838 24.75 6.2 43.2 67 0.5 32.9
03:05 1009 29.8 838 24.75 6.2 43.1 67 0.5 32.8
03:10 1009 29.8 838 24.75 6.3 43.3 66 0.4 32.8
03:15 1009 29.8 838 24.75 6.3 43.3 66 0.5 32.9
03:20 1009 29.8 838 24.75 6.2 43.2 67 0.5 32.9
03:25 1009 29.8 838 24.75 6.2 43.1 67 0.6 33
03:30 1009 29.8 838 24.75 6.2 43.1 68 0.6 33.1
03:35 1009 29.8 838 24.75 6.1 42.9 68 0.6 33.1
03:40 1009 29.8 838 24.75 6 42.8 68 0.6 33
03:45 1009 29.8 838 24.75 6 42.8 68 0.5 33
03:50 1009 29.8 838 24.75 6.1 43 67 0.5 32.9
03:55 1009 29.8 838 24.75 6.2 43.2 67 0.5 32.9
04:00 1009 29.8 838 24.75 6.2 43.2 67 0.6 33
04:05 1008 29.77 838 24.75 6.2 43.1 67 0.6 33.1
04:10 1008 29.77 838 24.75 6.1 42.9 68 0.7 33.2
04:15 1009 29.8 838 24.75 5.9 42.6 69 0.5 33
04:20 1009 29.8 838 24.75 5.8 42.5 69 0.7 33.2
04:25 1009 29.8 838 24.75 5.8 42.4 69 0.6 33.1
04:30 1008 29.77 838 24.75 5.8 42.4 69 0.6 33
04:35 1008 29.77 838 24.75 5.8 42.4 68 0.4 32.7
04:40 1008 29.77 838 24.75 5.9 42.7 67 0.3 32.5
04:45 1008 29.77 838 24.75 6 42.9 67 0.3 32.6
04:50 1008 29.77 838 24.75 6.1 43 66 0.3 32.6
04:55 1008 29.77 838 24.75 6.2 43.2 65 0.2 32.4
05:00 1008 29.77 837 24.72 6.2 43.2 66 0.4 32.7
05:05 1008 29.77 837 24.72 6 42.8 67 0.3 32.6
05:10 1008 29.77 837 24.72 5.8 42.5 68 0.4 32.6
05:15 1008 29.77 837 24.72 5.6 42.2 68 0.2 32.4
05:20 1008 29.77 837 24.72 5.7 42.3 67 0.1 32.3
05:25 1008 29.77 837 24.72 5.8 42.5 66 0.1 32.1
05:30 1008 29.77 837 24.72 6.1 42.9 66 0.2 32.4
05:35 1008 29.77 837 24.72 6 42.8 67 0.4 32.7
05:40 1008 29.77 837 24.72 5.6 42 69 0.3 32.5
05:45 1008 29.77 837 24.72 5.3 41.5 70 0.2 32.4
05:50 1008 29.77 837 24.72 5.1 41.2 70 0 32
05:55 1008 29.77 837 24.72 5.3 41.5 69 -0 31.9
06:00 1008 29.77 837 24.72 5.4 41.8 68 0 32.1
06:05 1008 29.77 837 24.72 5.5 41.9 67 -0.1 31.9
06:10 1008 29.77 837 24.72 5.8 42.4 66 -0.1 31.9
06:15 1008 29.77 837 24.72 5.9 42.6 66 -0 31.9
06:20 1008 29.77 837 24.72 5.9 42.6 65 -0.2 31.6
06:25 1008 29.77 837 24.72 6 42.8 65 0 32.1
06:30 1008 29.77 837 24.72 6 42.8 65 -0.1 31.8
06:35 1008 29.77 837 24.72 5.9 42.6 66 -0 32
06:40 1008 29.77 837 24.72 5.5 41.9 66 -0.3 31.4
06:45 1008 29.77 837 24.72 5.5 42 65 -0.5 31.1
06:50 1008 29.77 837 24.72 5.7 42.2 63 -0.7 30.7
06:55 1008 29.77 837 24.72 5.8 42.4 63 -0.8 30.6
07:00 1008 29.77 837 24.72 6.2 43.1 62 -0.6 31
07:05 1008 29.77 837 24.72 6.3 43.3 62 -0.4 31.2
07:10 1008 29.77 837 24.72 6.3 43.3 62 -0.4 31.3
07:15 1008 29.77 837 24.72 6.3 43.3 60 -0.8 30.6
07:20 1008 29.77 837 24.72 6.6 43.9 60 -0.5 31.2
07:25 1008 29.77 837 24.72 6.5 43.7 61 -0.4 31.3
07:30 1008 29.77 837 24.72 6.3 43.3 62 -0.5 31.1
07:35 1008 29.77 837 24.72 6 42.8 64 -0.4 31.4
07:40 1008 29.77 837 24.72 5.6 42.1 64 -0.7 30.7
07:45 1008 29.77 837 24.72 5.7 42.3 62 -0.9 30.3
07:50 1008 29.77 837 24.72 5.9 42.7 62 -0.8 30.5
07:55 1008 29.77 837 24.72 6.2 43.1 61 -0.8 30.6
08:00 1008 29.77 837 24.72 6.5 43.7 59 -0.8 30.5
08:05 1008 29.77 837 24.72 6.6 44 60 -0.5 31
08:10 1007 29.74 837 24.72 6.6 43.9 61 -0.4 31.2
08:15 1007 29.74 837 24.72 6.4 43.4 62 -0.4 31.2
08:20 1007 29.74 837 24.72 6.2 43.2 62 -0.5 31
08:25 1007 29.74 837 24.72 6.6 43.9 60 -0.6 30.8
08:30 1007 29.74 837 24.72 6.9 44.3 60 -0.4 31.3
08:35 1007 29.74 837 24.72 6.9 44.5 59 -0.4 31.3
08:40 1007 29.74 837 24.72 6.9 44.5 60 -0.3 31.4
08:45 1007 29.74 837 24.72 6.9 44.4 60 -0.3 31.5
08:50 1007 29.74 837 24.72 6.9 44.4 60 -0.4 31.4
08:55 1007 29.74 837 24.72 7.2 44.9 58 -0.6 30.9
09:00 1007 29.74 837 24.72 7.6 45.7 56 -0.5 31.1
09:05 1007 29.74 837 24.72 8.1 46.6 55 -0.3 31.4
09:10 1007 29.74 837 24.72 8.1 46.5 57 0 32
09:15 1007 29.74 837 24.72 7.8 46.1 58 0.1 32.3
09:20 1007 29.74 837 24.72 8 46.4 56 -0.3 31.5
09:25 1007 29.74 837 24.72 8.7 47.7 53 -0.3 31.5
09:30 1007 29.74 837 24.72 8.8 47.9 53 -0.2 31.6
09:35 1008 29.77 837 24.72 9.1 48.5 52 -0 31.9
09:40 1008 29.77 837 24.72 9 48.2 55 0.5 32.9
09:45 1007 29.74 837 24.72 8.8 47.8 53 -0.2 31.6
09:50 1007 29.74 837 24.72 9 48.2 53 -0.1 31.8
09:55 1007 29.74 837 24.72 9.4 48.8 52 -0.1 31.8
10:00 1007 29.74 837 24.72 9.6 49.4 51 0.1 32.2
10:05 1007 29.74 837 24.72 9.9 49.7 51 0.3 32.6
10:10 1007 29.74 836 24.69 10 50 50 -0 32
10:15 1007 29.74 836 24.69 10.1 50.2 50 0.1 32.2
10:20 1007 29.74 836 24.69 10.3 50.5 49 0 32
10:25 1007 29.74 836 24.69 11.1 51.9 46 -0.1 31.7
10:30 1007 29.74 836 24.69 11.8 53.2 45 0.2 32.4
10:35 1007 29.74 836 24.69 11.9 53.4 45 0.5 33
10:40 1007 29.74 836 24.69 11.5 52.7 47 0.6 33.1
10:45 1007 29.74 836 24.69 11.3 52.4 47 0.6 33
10:50 1007 29.74 836 24.69 11.3 52.4 48 0.6 33.1
10:55 1007 29.74 836 24.69 11.2 52.2 48 0.6 33
11:00 1007 29.74 836 24.69 11.3 52.3 47 0.3 32.6
11:05 1007 29.74 836 24.69 12.1 53.8 44 0.4 32.7
11:10 1007 29.74 836 24.69 12.8 55.1 42 0.5 32.8
11:15 1007 29.74 836 24.69 13.6 56.4 41 0.6 33.1
11:20 1007 29.74 836 24.69 13 55.3 43 0.8 33.5
11:25 1007 29.74 836 24.69 12.7 54.8 44 1 33.7
11:30 1007 29.74 836 24.69 13.2 55.7 42 0.7 33.2
11:35 1007 29.74 836 24.69 13.9 57 40 0.7 33.2
11:40 1007 29.74 836 24.69 14.1 57.4 39 0.5 33
11:45 1007 29.74 836 24.69 14.1 57.4 41 1 33.9
11:50 1007 29.74 836 24.69 14.2 57.6 40 1 33.7
11:55 1006 29.71 836 24.69 14.3 57.8 39 0.7 33.2
12:00 1006 29.71 836 24.69 14.4 57.8 40 0.9 33.7
12:05 1006 29.71 836 24.69 14.4 57.9 40 1.1 33.9
12:10 1006 29.71 836 24.69 14.7 58.5 39 1.1 34
12:15 1006 29.71 835 24.66 14.5 58 42 1.8 35.2
12:20 1006 29.71 835 24.66 14.4 57.8 41 1.2 34.2
12:25 1006 29.71 835 24.66 14.8 58.7 40 1.4 34.4
12:30 1006 29.71 835 24.66 15.1 59.2 38 1 33.8
12:35 1006 29.71 835 24.66 15.1 59.2 37 0.8 33.5
12:40 1006 29.71 835 24.66 15.3 59.6 39 1.5 34.8
12:45 1006 29.71 835 24.66 15.2 59.4 39 1.4 34.5
12:50 1006 29.71 835 24.66 15.3 59.6 37 1 33.7
12:55 1006 29.71 835 24.66 15.3 59.5 39 1.5 34.7
13:00 1006 29.71 835 24.66 14.9 58.9 38 0.8 33.4
13:05 1006 29.71 835 24.66 15.6 60 36 0.7 33.2
13:10 1006 29.71 835 24.66 16.1 61.1 34 0.5 32.9
13:15 1005 29.68 835 24.66 16.2 61.2 35 1 33.8
13:20 1005 29.68 835 24.66 15.5 59.9 39 1.7 35.1
13:25 1005 29.68 834 24.63 15.3 59.5 37 0.9 33.7
13:30 1005 29.68 834 24.63 16.2 61.1 36 1.3 34.3
13:35 1005 29.68 834 24.63 15.7 60.3 40 2.2 35.9
13:40 1005 29.68 834 24.63 15.8 60.5 35 0.6 33.2
13:45 1005 29.68 834 24.63 16.7 62.1 34 1 33.8
13:50 1005 29.68 834 24.63 16.5 61.8 35 1.2 34.2
13:55 1005 29.68 834 24.63 16.4 61.6 34 0.8 33.4
14:00 1005 29.68 834 24.63 16.9 62.3 33 0.4 32.7
14:05 1005 29.68 834 24.63 17.4 63.2 32 0.8 33.4
14:10 1005 29.68 834 24.63 17.2 62.9 34 1.4 34.5
14:15 1005 29.68 834 24.63 16.7 62.1 33 0.6 33
14:20 1005 29.68 834 24.63 16.8 62.3 33 0.5 32.9
14:25 1005 29.68 834 24.63 16.9 62.3 34 1 33.9
14:30 1005 29.68 834 24.63 16.6 61.9 36 1.5 34.7
14:35 1005 29.68 834 24.63 16 60.8 37 1.4 34.5
14:40 1005 29.68 834 24.63 15.6 60.2 38 1.6 34.9
14:45 1004 29.65 834 24.63 16.1 60.9 36 1 33.9
14:50 1004 29.65 834 24.63 16.5 61.8 34 0.9 33.7
14:55 1004 29.65 834 24.63 15.7 60.3 36 0.8 33.5
15:00 1004 29.65 834 24.63 15.3 59.6 38 1 33.8
15:05 1004 29.65 834 24.63 15.3 59.5 39 1.4 34.6
15:10 1004 29.65 834 24.63 15.4 59.8 38 1.3 34.3
15:15 1004 29.65 834 24.63 15.9 60.6 37 1.5 34.7
15:20 1004 29.65 833 24.6 15.9 60.6 39 2 35.5
15:25 1004 29.65 833 24.6 15.8 60.4 38 1.7 35
15:30 1004 29.65 833 24.6 15.6 60.1 38 1.6 34.9
15:35 1004 29.65 833 24.6 15.4 59.7 39 1.6 34.8
15:40 1004 29.65 833 24.6 15.4 59.7 39 1.7 35.1
15:45 1004 29.65 833 24.6 15 59 42 2.2 36
15:50 1004 29.65 833 24.6 14.3 57.7 43 1.9 35.4
15:55 1004 29.65 833 24.6 13.8 56.9 43 1.7 35
16:00 1004 29.65 833 24.6 13.6 56.5 44 1.8 35.2
16:05 1004 29.65 833 24.6 13.5 56.4 46 2.1 35.9
16:10 1004 29.65 833 24.6 13.6 56.5 44 1.6 34.9
16:15 1004 29.65 833 24.6 14.1 57.4 44 2.1 35.7
16:20 1004 29.65 833 24.6 14.4 57.9 43 2 35.7
16:25 1004 29.65 833 24.6 14.5 58 43 2.1 35.8
16:30 1004 29.65 833 24.6 14.2 57.6 43 2 35.7
16:35 1004 29.65 833 24.6 13.6 56.5 47 2.5 36.4
16:40 1004 29.65 834 24.63 13.4 56.2 44 1.5 34.7
16:45 1004 29.65 834 24.63 13.4 56.2 44 1.5 34.6
16:50 1004 29.65 834 24.63 13.4 56.1 53 4 39.2
16:55 1004 29.65 834 24.63 12.4 54.4 64 5.9 42.6
17:00 1005 29.68 834 24.63 11.6 52.9 60 4 39.2
17:05 1005 29.68 834 24.63 11.3 52.4 63 4.5 40.1
17:10 1005 29.68 834 24.63 11.2 52.1 57 3 37.4
17:15 1005 29.68 834 24.63 11.5 52.7 61 4.3 39.7
17:20 1005 29.68 834 24.63 11.4 52.5 64 4.8 40.6
17:25 1005 29.68 834 24.63 11.2 52.2 64 4.7 40.4
17:30 1005 29.68 834 24.63 11.2 52.2 64 4.7 40.4
17:35 1005 29.68 834 24.63 11.2 52.1 66 5.1 41.2
17:40 1005 29.68 834 24.63 11.1 51.9 68 5.5 42
17:45 1005 29.68 834 24.63 10.8 51.5 71 5.8 42.4
17:50 1005 29.68 834 24.63 10.4 50.6 74 6 42.9
17:55 1005 29.68 834 24.63 10.3 50.5 75 6 42.7
18:00 1005 29.68 834 24.63 10.1 50.2 77 6.3 43.4
18:05 1005 29.68 834 24.63 9.8 49.6 80 6.4 43.6
18:10 1005 29.68 834 24.63 9.4 49 77 5.7 42.2
18:15 1005 29.68 834 24.63 9.1 48.3 78 5.5 42
18:20 1005 29.68 835 24.66 8.8 47.9 80 5.5 41.9
18:25 1005 29.68 835 24.66 8.6 47.5 84 6.1 42.9
18:30 1006 29.71 835 24.66 8.4 47 86 6.1 43
18:35 1006 29.71 835 24.66 8.1 46.7 89 6.5 43.6
18:40 1006 29.71 835 24.66 8.1 46.6 91 6.7 44.1
18:45 1006 29.71 835 24.66 8.1 46.6 92 6.9 44.5
18:50 1006 29.71 835 24.66 8.2 46.8 92 7 44.6
18:55 1006 29.71 835 24.66 8.1 46.7 93 7.1 44.8
19:00 1006 29.71 835 24.66 8.1 46.6 93 7.1 44.8
19:05 1006 29.71 835 24.66 7.9 46.3 93 6.9 44.4
19:10 1006 29.71 835 24.66 7.7 45.8 94 6.7 44
19:15 1006 29.71 835 24.66 7.2 45 92 6.1 42.9
19:20 1006 29.71 835 24.66 6.7 44.1 93 5.6 42
19:25 1006 29.71 835 24.66 6.5 43.7 93 5.5 41.9
19:30 1006 29.71 835 24.66 6.4 43.5 94 5.5 41.8
19:35 1006 29.71 835 24.66 6.2 43.2 94 5.3 41.5
19:40 1006 29.71 835 24.66 6.2 43.1 93 5.2 41.4
19:45 1006 29.71 835 24.66 6.1 43.1 93 5.1 41.2
19:50 1006 29.71 835 24.66 6.1 43 94 5.1 41.3
19:55 1006 29.71 835 24.66 6.1 43 93 5.1 41.2
20:00 1006 29.71 835 24.66 5.9 42.6 95 5.1 41.3
20:05 1006 29.71 835 24.66 5.7 42.2 95 5 41
20:10 1006 29.71 835 24.66 5.8 42.4 96 5.1 41.2
20:15 1006 29.71 835 24.66 6 42.9 95 5.3 41.5
20:20 1006 29.71 835 24.66 6.1 43.1 94 5.2 41.4
20:25 1005 29.68 835 24.66 6.2 43.2 93 5.2 41.4
20:30 1005 29.68 835 24.66 6.3 43.4 93 5.3 41.5
20:35 1005 29.68 835 24.66 6.5 43.7 92 5.3 41.6
20:40 1005 29.68 835 24.66 6.4 43.5 92 5.2 41.4
20:45 1005 29.68 835 24.66 5.9 42.7 94 5 41
20:50 1005 29.68 834 24.63 5.8 42.5 93 4.8 40.7
20:55 1005 29.68 834 24.63 5.8 42.5 93 4.8 40.7
21:00 1005 29.68 834 24.63 6 42.8 93 4.9 40.8
21:05 1005 29.68 834 24.63 6 42.7 93 4.9 40.8
21:10 1005 29.68 834 24.63 5.9 42.6 93 4.9 40.7
21:15 1005 29.68 834 24.63 5.8 42.5 93 4.8 40.7
21:20 1005 29.68 834 24.63 5.8 42.4 93 4.8 40.6
21:25 1005 29.68 834 24.63 5.9 42.5 93 4.7 40.5
21:30 1005 29.68 834 24.63 5.9 42.6 92 4.6 40.3
21:35 1005 29.68 834 24.63 5.9 42.7 92 4.7 40.4
21:40 1005 29.68 834 24.63 6 42.9 90 4.6 40.2
21:45 1005 29.68 834 24.63 6 42.7 90 4.5 40.1
21:50 1005 29.68 834 24.63 6.1 42.9 89 4.3 39.8
21:55 1005 29.68 834 24.63 5.9 42.7 89 4.3 39.8
22:00 1005 29.68 834 24.63 5.9 42.7 88 4.2 39.5
22:05 1005 29.68 834 24.63 5.9 42.6 90 4.3 39.7
22:10 1005 29.68 834 24.63 6 42.8 89 4.2 39.6
22:15 1005 29.68 834 24.63 6 42.9 89 4.4 39.9
22:20 1005 29.68 834 24.63 6.3 43.3 88 4.4 40
22:25 1005 29.68 834 24.63 6.3 43.3 89 4.6 40.4
22:30 1005 29.68 834 24.63 6.4 43.5 88 4.5 40
22:35 1005 29.68 834 24.63 6.5 43.8 87 4.5 40.1
22:40 1005 29.68 834 24.63 6.6 43.9 88 4.7 40.5
22:45 1004 29.65 834 24.63 6.5 43.8 88 4.7 40.4
22:50 1004 29.65 834 24.63 6.3 43.3 91 4.9 40.7
22:55 1004 29.65 834 24.63 6 42.8 93 4.9 40.9
23:00 1004 29.65 834 24.63 5.9 42.6 92 4.6 40.3
23:05 1004 29.65 834 24.63 5.9 42.6 92 4.7 40.5
23:10 1004 29.65 834 24.63 5.8 42.4 93 4.8 40.6
23:15 1004 29.65 834 24.63 5.7 42.2 93 4.7 40.4
23:20 1004 29.65 833 24.6 5.6 42.1 93 4.6 40.3
23:25 1004 29.65 833 24.6 5.6 42 93 4.6 40.2
23:30 1004 29.65 833 24.6 5.5 41.9 93 4.5 40.1
23:35 1004 29.65 833 24.6 5.5 42 93 4.6 40.2
23:40 1004 29.65 833 24.6 5.5 41.9 93 4.5 40
23:45 1004 29.65 833 24.6 5.5 41.9 92 4.4 39.8
23:50 1004 29.65 833 24.6 5.5 42 92 4.3 39.8
23:55 1004 29.65 833 24.6 5.8 42.4 91 4.4 39.9
24:00 1004 29.65 833 24.6 6 42.9 90 4.5 40.1